Time;durP1;ratioP1;P1;durP2;ratioP2;P2;SDS_P1;SDS_P2;PMS_P1;PMS_P2;Temp;Humidity;BMP_temperature;BMP_pressure;BME280_temperature;BME280_humidity;BME280_pressure;Samples;Min_cycle;Max_cycle;Signal;HPM_P1;HPM_P2
2022/03/23 00:00:04;;;;;;;18.67;13.13;;;10.40;46.40;;;-142.21;61.50;112049.66;4958745;29;20810;-79
2022/03/23 00:02:32;;;;;;;20.73;13.70;;;10.30;46.50;;;-142.21;62.42;112049.66;4958006;29;20475;-78
2022/03/23 00:04:59;;;;;;;19.33;13.37;;;10.20;46.70;;;-142.21;61.94;112049.66;4957927;28;21072;-79
2022/03/23 00:07:28;;;;;;;19.90;13.00;;;10.20;46.70;;;-142.21;62.69;112049.66;4958319;29;20459;-78
2022/03/23 00:09:56;;;;;;;22.20;13.07;;;10.20;47.50;;;-142.21;61.79;112049.66;4940772;29;20945;-79
2022/03/23 00:12:23;;;;;;;17.83;12.70;;;10.10;47.20;;;-142.21;61.29;112049.66;4958211;29;20536;-78
2022/03/23 00:14:50;;;;;;;16.50;12.27;;;10.10;46.80;;;-142.21;61.52;112049.66;4957225;28;20474;-77
2022/03/23 00:17:18;;;;;;;16.17;12.63;;;10.20;46.60;;;-142.21;62.66;112049.66;4957925;28;20491;-79
2022/03/23 00:19:45;;;;;;;17.27;12.33;;;10.20;46.80;;;-142.21;62.99;112049.66;4957004;29;20444;-78
2022/03/23 00:22:13;;;;;;;17.70;13.30;;;10.20;46.90;;;-142.21;61.59;112049.66;4940766;28;20456;-80
2022/03/23 00:24:40;;;;;;;15.77;11.70;;;10.10;47.80;;;-142.21;63.53;112049.66;4957635;29;20567;-78
2022/03/23 00:27:09;;;;;;;16.67;11.47;;;10.10;46.80;;;-142.21;63.21;112049.66;4957936;28;20489;-78
2022/03/23 00:29:36;;;;;;;16.67;12.40;;;10.10;46.80;;;-142.21;62.41;112049.66;4957958;28;20448;-77
2022/03/23 00:32:05;;;;;;;15.97;12.03;;;10.10;47.00;;;-142.21;62.66;112049.66;4940500;29;20543;-78
2022/03/23 00:34:32;;;;;;;16.40;12.77;;;10.10;46.80;;;-142.21;62.82;112049.66;4957616;29;20444;-79
2022/03/23 00:36:59;;;;;;;15.87;12.00;;;10.00;46.70;;;-142.21;63.76;112049.66;4967772;28;20441;-78
2022/03/23 00:39:27;;;;;;;17.33;12.47;;;10.00;47.10;;;-142.21;62.74;112049.66;4958037;29;20448;-78
2022/03/23 00:41:54;;;;;;;18.30;13.27;;;9.80;48.00;;;-142.21;63.89;112049.66;4957774;29;20536;-79
2022/03/23 00:44:23;;;;;;;18.97;12.90;;;9.80;48.60;;;-142.21;63.91;112049.66;4957254;29;20488;-79
2022/03/23 00:46:50;;;;;;;18.60;11.90;;;9.60;49.30;;;-142.21;64.05;112049.66;4957788;29;20453;-79
2022/03/23 00:49:18;;;;;;;18.33;12.07;;;9.50;49.40;;;-142.21;65.56;112049.66;4939353;29;20460;-77
2022/03/23 00:51:45;;;;;;;16.97;12.37;;;9.50;49.70;;;-142.21;65.25;112049.66;4957396;29;20470;-77
2022/03/23 00:54:12;;;;;;;17.23;12.33;;;9.60;49.20;;;-142.21;65.59;112049.66;4957182;28;20880;-78
2022/03/23 00:56:41;;;;;;;15.43;11.67;;;9.50;48.80;;;-142.21;66.47;112049.66;4957476;29;20453;-78
2022/03/23 00:59:08;;;;;;;21.30;13.30;;;9.60;48.60;;;-142.21;64.36;112049.66;4957705;29;20453;-78
2022/03/23 01:01:38;;;;;;;17.30;12.70;;;9.60;48.80;;;-142.21;64.36;112049.66;4957383;29;20475;-78
2022/03/23 01:04:05;;;;;;;19.00;13.40;;;9.50;48.90;;;-142.21;66.74;112049.66;4957217;29;20882;-78
2022/03/23 01:06:33;;;;;;;19.07;13.50;;;9.40;49.20;;;-142.21;64.97;112049.66;4956280;28;20456;-78
2022/03/23 01:09:00;;;;;;;18.07;13.33;;;9.40;48.80;;;-142.21;65.54;112049.66;4938077;29;20434;-78
2022/03/23 01:11:27;;;;;;;20.00;13.27;;;9.40;49.20;;;-142.21;67.70;112049.66;4956689;29;20471;-78
2022/03/23 01:13:54;;;;;;;14.90;11.40;;;9.40;49.50;;;-142.21;68.83;112049.66;4957068;28;20452;-78
2022/03/23 01:16:22;;;;;;;17.23;12.20;;;9.40;49.40;;;-142.21;67.71;112049.66;4956731;28;20469;-77
2022/03/23 01:18:50;;;;;;;16.63;12.40;;;9.30;49.10;;;-142.21;69.63;112049.66;4957364;28;20453;-77
2022/03/23 01:21:18;;;;;;;15.67;12.30;;;9.30;50.10;;;-142.21;69.60;112049.66;4956680;29;20459;-78
2022/03/23 01:23:46;;;;;;;17.10;12.23;;;9.20;49.50;;;-142.21;68.01;112049.66;4937951;29;20557;-78
2022/03/23 01:26:13;;;;;;;18.90;13.17;;;9.30;49.40;;;-142.21;67.94;112049.66;4955588;29;20508;-78
2022/03/23 01:28:41;;;;;;;16.37;12.53;;;9.20;49.70;;;-142.21;68.38;112049.66;4956873;29;20456;-75
2022/03/23 01:31:08;;;;;;;16.20;12.07;;;9.10;49.60;;;-142.21;67.52;112049.66;4956795;29;20457;-78
2022/03/23 01:33:36;;;;;;;16.67;12.77;;;9.20;49.10;;;-142.21;68.85;112049.66;4939658;29;20449;-80
2022/03/23 01:36:05;;;;;;;18.73;12.80;;;9.20;49.70;;;-142.21;67.68;112049.66;4956477;29;20444;-77
2022/03/23 01:38:32;;;;;;;18.07;13.03;;;9.10;49.50;;;-142.21;67.53;112049.66;4939811;29;20453;-78
2022/03/23 01:40:59;;;;;;;18.40;12.87;;;9.10;49.50;;;-142.21;66.38;112049.66;4938736;29;20820;-78
2022/03/23 01:43:26;;;;;;;17.77;13.13;;;9.10;49.40;;;-142.21;67.69;112049.66;4956287;29;20968;-78
2022/03/23 01:45:54;;;;;;;19.10;12.87;;;9.00;49.70;;;-142.21;65.94;112049.66;4955863;29;20809;-76
2022/03/23 01:48:22;;;;;;;17.73;12.27;;;9.00;49.60;;;-142.21;65.96;112049.66;4956497;29;20457;-77
2022/03/23 01:50:50;;;;;;;16.30;11.93;;;8.80;49.60;;;-142.21;67.54;112049.66;4956097;28;20449;-78
2022/03/23 01:53:19;;;;;;;15.80;12.63;;;8.90;49.50;;;-142.21;66.09;112049.66;4939102;29;20465;-78
2022/03/23 01:55:46;;;;;;;17.43;13.20;;;8.90;49.10;;;-142.21;66.67;112049.66;4956304;29;20455;-77
2022/03/23 01:58:13;;;;;;;16.37;12.87;;;8.90;49.60;;;-142.21;67.27;112049.66;4938931;29;20457;-79
2022/03/23 02:00:41;;;;;;;15.43;11.80;;;8.90;49.40;;;-142.21;66.54;112049.66;4956170;28;20935;-79
2022/03/23 02:03:11;;;;;;;17.23;12.20;;;8.90;49.20;;;-142.21;68.22;112049.66;4955486;29;20468;-77
2022/03/23 02:05:38;;;;;;;17.33;12.47;;;8.80;49.80;;;-142.21;69.57;112049.66;4938473;29;20492;-78
2022/03/23 02:08:06;;;;;;;17.30;12.67;;;8.80;50.10;;;-142.21;69.83;112049.66;4956607;28;20451;-77
2022/03/23 02:10:34;;;;;;;16.43;11.60;;;8.70;50.80;;;-142.21;70.94;112049.66;4956559;28;20507;-78
2022/03/23 02:13:01;;;;;;;18.47;13.07;;;8.50;51.00;;;-142.21;69.13;112049.66;4957122;29;20840;-78
2022/03/23 02:15:29;;;;;;;18.63;12.43;;;8.40;50.90;;;-142.21;71.31;112049.66;4956947;28;20548;-79
2022/03/23 02:17:57;;;;;;;18.40;12.35;;;8.40;51.00;;;-142.21;70.62;112049.66;4957284;28;20460;-79
2022/03/23 02:20:26;;;;;;;16.43;12.07;;;8.40;50.40;;;-142.21;68.85;112049.66;4954368;28;20548;-78
2022/03/23 02:22:55;;;;;;;21.40;12.87;;;8.50;50.50;;;-142.21;68.57;112049.66;4955842;28;20579;-78
2022/03/23 02:25:26;;;;;;;17.30;12.93;;;8.40;50.80;;;-142.21;70.51;112049.66;4954974;28;20528;-78
2022/03/23 02:27:55;;;;;;;17.37;12.33;;;8.30;50.70;;;-142.21;69.01;112049.66;4938987;29;20455;-78
2022/03/23 02:30:23;;;;;;;19.13;13.27;;;8.30;50.70;;;-142.21;69.75;112049.66;4955839;29;20461;-78
2022/03/23 02:32:50;;;;;;;18.13;13.17;;;8.30;50.70;;;-142.21;70.66;112049.66;4955530;29;20856;-78
2022/03/23 02:35:18;;;;;;;17.23;12.43;;;8.30;50.80;;;-142.21;73.01;112049.66;4955716;28;20464;-77
2022/03/23 02:37:45;;;;;;;17.97;12.67;;;8.20;51.30;;;-142.21;73.71;112049.66;4955290;28;20531;-75
2022/03/23 02:40:14;;;;;;;14.77;11.40;;;8.20;50.90;;;-142.21;74.73;112049.66;4955645;28;20455;-76
2022/03/23 02:42:42;;;;;;;17.33;11.87;;;8.30;52.10;;;-142.21;75.60;112049.66;4955215;29;20471;-76
2022/03/23 02:45:11;;;;;;;17.27;12.77;;;8.30;52.00;;;-142.21;74.65;112049.66;4955638;29;20587;-77
2022/03/23 02:47:38;;;;;;;16.33;11.80;;;8.20;52.20;;;-142.21;73.98;112049.66;4955231;28;20460;-78
2022/03/23 02:50:07;;;;;;;16.05;11.93;;;8.20;51.60;;;-142.21;73.42;112049.66;4938498;29;20453;-77
2022/03/23 02:52:34;;;;;;;17.40;12.40;;;8.10;51.40;;;-142.21;73.45;112049.66;4937562;29;20284;-76
2022/03/23 03:03:47;;;;;;;18.80;12.03;;;8.00;51.80;;;-142.21;72.26;112049.66;4940423;29;20484;-76
2022/03/23 03:06:14;;;;;;;17.37;12.40;;;8.00;51.30;;;-142.21;72.92;112049.66;4954504;28;20838;-76
2022/03/23 03:08:47;;;;;;;16.23;12.87;;;8.00;50.90;;;-142.21;70.52;112049.66;4954733;28;20445;-75
2022/03/23 03:11:17;;;;;;;18.37;12.47;;;8.10;50.90;;;-142.21;70.23;112049.66;4954739;29;20444;-76
2022/03/23 03:13:49;;;;;;;20.40;12.47;;;8.00;51.30;;;-142.21;69.51;112049.66;4937739;29;20463;-77
2022/03/23 03:16:17;;;;;;;18.20;12.53;;;7.90;51.20;;;-142.21;71.70;112049.66;4947145;29;21016;-77
2022/03/23 03:18:46;;;;;;;15.40;12.00;;;7.80;51.70;;;-142.21;73.91;112049.66;4954722;28;20457;-78
2022/03/23 03:21:14;;;;;;;18.40;12.93;;;7.70;52.50;;;-142.21;73.02;112049.66;4954071;29;20460;-79
2022/03/23 03:23:43;;;;;;;19.10;11.65;;;7.80;52.70;;;-142.21;72.53;112049.66;4954211;28;20584;-78
2022/03/23 03:26:11;;;;;;;16.57;11.87;;;7.60;52.60;;;-142.21;72.12;112049.66;4955113;28;20739;-78
2022/03/23 03:28:41;;;;;;;16.30;12.10;;;7.60;52.20;;;-142.21;71.99;112049.66;4954744;29;21021;-77
2022/03/23 03:34:52;;;;;;;16.40;11.13;;;7.60;52.60;;;-142.21;75.67;112049.66;4935612;29;20505;-76
2022/03/23 03:37:19;;;;;;;16.33;11.90;;;7.50;52.50;;;-142.21;76.89;112049.66;4935591;29;20208;-78
2022/03/23 03:39:46;;;;;;;15.97;11.73;;;7.50;52.50;;;-142.21;76.57;112049.66;4935352;29;20525;-76
2022/03/23 03:42:14;;;;;;;13.70;11.30;;;7.50;52.50;;;-142.21;75.97;112049.66;4935850;29;20454;-76
2022/03/23 03:44:41;;;;;;;16.97;12.57;;;7.50;52.70;;;-142.21;76.55;112049.66;4934797;29;20493;-79
2022/03/23 03:47:10;;;;;;;19.53;12.13;;;7.40;52.90;;;-142.21;77.50;112049.66;4935560;29;20464;-78
2022/03/23 03:49:37;;;;;;;19.08;12.20;;;7.40;53.40;;;-142.21;76.65;112049.66;4917562;29;20508;-79
2022/03/23 03:52:06;;;;;;;19.00;12.32;;;7.30;53.40;;;-142.21;78.39;112049.66;4943718;29;20205;-78
2022/03/23 03:54:34;;;;;;;17.67;12.80;;;7.40;53.30;;;-142.21;79.17;112049.66;4954550;28;20247;-78
2022/03/23 03:57:01;;;;;;;19.27;12.77;;;7.40;53.40;;;-142.21;78.06;112049.66;4954071;29;20204;-78
2022/03/23 03:59:29;;;;;;;19.23;12.70;;;7.30;54.10;;;-142.21;77.68;112049.66;4954645;29;20453;-78
2022/03/23 04:01:56;;;;;;;18.30;12.20;;;7.30;53.80;;;-142.21;77.65;112049.66;4944090;28;20867;-77
2022/03/23 04:04:23;;;;;;;20.00;13.30;;;7.30;53.70;;;-142.21;78.78;112049.66;4966195;28;20444;-76
2022/03/23 04:06:50;;;;;;;17.63;12.80;;;7.20;53.60;;;-142.21;77.38;112049.66;4973505;28;20291;-77
2022/03/23 04:09:18;;;;;;;17.00;13.07;;;7.20;53.80;;;-142.21;78.96;112049.66;4973795;28;20211;-77
2022/03/23 04:11:48;;;;;;;16.77;12.35;;;7.20;54.30;;;-142.21;78.47;112049.66;4973971;28;20530;-77
2022/03/23 04:14:17;;;;;;;16.77;12.50;;;7.10;54.00;;;-142.21;77.18;112049.66;4972126;28;20223;-77
2022/03/23 04:16:44;;;;;;;15.90;11.70;;;7.20;53.40;;;-142.21;76.08;112049.66;4956567;28;20251;-78
2022/03/23 04:19:11;;;;;;;17.37;12.90;;;7.20;52.80;;;-142.21;75.98;112049.66;4973335;28;20205;-77
2022/03/23 04:21:38;;;;;;;15.90;12.05;;;7.30;53.00;;;-142.21;74.89;112049.66;4973756;28;20551;-76
2022/03/23 04:24:06;;;;;;;16.07;11.97;;;7.20;52.70;;;-142.21;74.77;112049.66;4972913;28;20248;-78
2022/03/23 04:26:35;;;;;;;19.10;12.37;;;7.20;52.40;;;-142.21;75.30;112049.66;4973425;28;20996;-76
2022/03/23 04:29:02;;;;;;;17.53;12.77;;;7.20;52.60;;;-142.21;78.67;112049.66;4973198;28;20448;-78
2022/03/23 04:31:29;;;;;;;18.47;13.20;;;7.30;53.00;;;-142.21;78.30;112049.66;4973341;28;20458;-77
2022/03/23 04:33:56;;;;;;;19.67;12.43;;;7.50;53.20;;;-142.21;77.33;112049.66;4973938;28;20465;-77
2022/03/23 04:36:23;;;;;;;19.30;12.73;;;7.40;52.10;;;-142.21;77.04;112049.66;4972921;28;20205;-77
2022/03/23 04:38:51;;;;;;;16.77;12.45;;;7.30;52.30;;;-142.21;77.12;112049.66;4956142;28;20205;-77
2022/03/23 04:41:18;;;;;;;17.92;13.00;;;7.20;52.20;;;-142.21;76.00;112049.66;4953747;29;20213;-76
2022/03/23 04:43:46;;;;;;;17.13;12.23;;;7.20;52.80;;;-142.21;76.40;112049.66;4956624;28;20204;-79
2022/03/23 04:46:15;;;;;;;15.43;11.73;;;7.10;53.00;;;-142.21;75.95;112049.66;4957518;29;20323;-77
2022/03/23 04:48:42;;;;;;;18.55;12.23;;;7.20;52.30;;;-142.21;76.93;112049.66;4956832;28;20212;-78
2022/03/23 04:51:09;;;;;;;17.33;12.85;;;7.20;52.70;;;-142.21;78.75;112049.66;4957252;29;20213;-77
2022/03/23 04:53:36;;;;;;;20.80;13.13;;;7.10;52.80;;;-142.21;77.47;112049.66;4956700;29;20299;-78
2022/03/23 04:56:04;;;;;;;18.87;12.90;;;7.10;52.40;;;-142.21;76.31;112049.66;4957558;28;20444;-78
2022/03/23 04:58:31;;;;;;;18.63;12.27;;;7.10;52.50;;;-142.21;75.61;112049.66;4956477;29;20473;-77
2022/03/23 05:01:00;;;;;;;15.43;11.68;;;7.00;52.80;;;-142.21;74.86;112049.66;4957390;29;20312;-78
2022/03/23 05:03:28;;;;;;;17.40;11.88;;;7.00;52.50;;;-142.21;76.17;112049.66;4939977;29;20311;-78
2022/03/23 05:05:56;;;;;;;16.95;12.50;;;6.90;53.30;;;-142.21;75.70;112049.66;4956413;28;20229;-79
2022/03/23 05:08:23;;;;;;;17.77;12.27;;;6.90;53.10;;;-142.21;76.38;112049.66;4957410;29;20205;-78
2022/03/23 05:10:50;;;;;;;19.60;13.20;;;6.90;53.10;;;-142.21;76.09;112049.66;4956548;29;20580;-78
2022/03/23 05:13:17;;;;;;;18.27;13.20;;;6.90;53.10;;;-142.21;76.42;112049.66;4956350;29;20209;-75
2022/03/23 05:15:44;;;;;;;17.35;12.20;;;6.80;53.80;;;-142.21;76.98;112049.66;4956818;28;20507;-78
2022/03/23 05:18:14;;;;;;;17.65;11.63;;;6.80;53.50;;;-142.21;78.56;112049.66;4956995;28;20201;-77
2022/03/23 05:20:41;;;;;;;15.23;11.70;;;6.70;53.90;;;-142.21;77.94;112049.66;4957055;28;20296;-78
2022/03/23 05:23:09;;;;;;;16.27;11.45;;;6.70;54.10;;;-142.21;77.16;112049.66;4919891;29;20234;-77
2022/03/23 05:25:37;;;;;;;16.70;12.20;;;6.70;53.60;;;-142.21;75.98;112049.66;4937528;29;20325;-76
2022/03/23 05:28:08;;;;;;;16.60;12.20;;;6.70;53.30;;;-142.21;75.42;112049.66;4939122;29;20214;-77
2022/03/23 05:30:36;;;;;;;20.55;13.00;;;6.70;53.10;;;-142.21;75.57;112049.66;4956763;29;20189;-74
2022/03/23 05:33:04;;;;;;;18.23;11.93;;;6.80;53.00;;;-142.21;76.36;112049.66;4956083;28;20205;-75
2022/03/23 05:35:33;;;;;;;19.88;12.60;;;6.70;53.10;;;-142.21;77.81;112049.66;4957020;29;20611;-76
2022/03/23 05:38:01;;;;;;;19.08;13.27;;;6.80;53.50;;;-142.21;76.96;112049.66;4956612;28;20217;-77
2022/03/23 05:40:28;;;;;;;17.33;12.73;;;6.70;53.20;;;-142.21;76.99;112049.66;4956365;28;20212;-75
2022/03/23 05:42:55;;;;;;;18.02;12.85;;;6.80;53.30;;;-142.21;77.38;112049.66;4956748;29;20247;-78
2022/03/23 05:45:23;;;;;;;18.23;12.80;;;6.80;53.70;;;-142.21;78.44;112049.66;4955723;29;20236;-77
2022/03/23 05:47:53;;;;;;;15.52;11.18;;;6.70;53.70;;;-142.21;78.89;112049.66;4943826;29;20215;-75
2022/03/23 05:50:21;;;;;;;19.02;12.00;;;6.70;53.80;;;-142.21;80.21;112049.66;4937309;29;20236;-77
2022/03/23 05:52:49;;;;;;;17.55;12.60;;;6.80;53.80;;;-142.21;81.55;112049.66;4941631;29;20201;-75
2022/03/23 05:55:17;;;;;;;17.77;12.68;;;6.80;54.00;;;-142.21;83.73;112049.66;4955659;28;20210;-78
2022/03/23 05:57:44;;;;;;;18.70;12.82;;;6.90;55.00;;;-142.21;83.70;112049.66;4957074;29;20217;-77
2022/03/23 06:00:12;;;;;;;17.48;11.85;;;7.00;54.40;;;-142.21;81.73;112049.66;4956850;28;20205;-75
2022/03/23 06:02:40;;;;;;;16.75;11.93;;;7.00;54.40;;;-142.21;81.07;112049.66;4955399;28;20209;-78
2022/03/23 06:05:09;;;;;;;19.80;13.63;;;7.10;54.60;;;-142.21;81.57;112049.66;4957057;28;20276;-77
2022/03/23 06:07:36;;;;;;;18.70;13.48;;;7.10;54.50;;;-142.21;81.25;112049.66;4956305;29;20460;-78
2022/03/23 06:10:08;;;;;;;17.90;12.60;;;7.20;54.30;;;-142.21;81.02;112049.66;4937273;29;20217;-78
2022/03/23 06:12:35;;;;;;;18.02;13.00;;;7.30;54.40;;;-142.21;80.44;112049.66;4936779;29;20194;-78
2022/03/23 06:15:03;;;;;;;18.27;12.90;;;7.40;54.10;;;-142.21;79.90;112049.66;4937041;29;20230;-75
2022/03/23 06:17:32;;;;;;;18.45;12.93;;;7.50;54.10;;;-142.21;81.43;112049.66;4936966;29;20216;-77
2022/03/23 06:19:59;;;;;;;17.57;12.03;;;7.50;54.60;;;-142.21;79.71;112049.66;4937275;29;20214;-76
2022/03/23 06:22:27;;;;;;;18.47;12.30;;;7.50;54.60;;;-142.21;80.69;112049.66;4953660;28;20492;-78
2022/03/23 06:24:54;;;;;;;14.70;11.60;;;7.70;54.30;;;-142.21;80.00;112049.66;4955275;29;20437;-77
2022/03/23 06:27:23;;;;;;;14.57;12.03;;;7.90;54.20;;;-142.21;80.31;112049.66;4955573;29;21008;-77
2022/03/23 06:29:50;;;;;;;17.67;12.30;;;8.00;54.20;;;-142.21;80.29;112049.66;4955284;29;20535;-75
2022/03/23 06:32:17;;;;;;;15.47;12.17;;;8.10;53.60;;;-142.21;78.51;112049.66;4955695;29;20460;-77
2022/03/23 06:34:45;;;;;;;14.43;11.67;;;8.40;53.90;;;-142.21;81.15;112049.66;4955444;29;20478;-77
2022/03/23 06:37:12;;;;;;;17.07;12.33;;;8.50;53.80;;;-142.21;80.33;112049.66;4955966;29;20453;-77
2022/03/23 06:39:40;;;;;;;17.47;12.43;;;8.80;53.50;;;-142.21;80.45;112049.66;4938527;29;20495;-78
2022/03/23 06:42:07;;;;;;;16.97;12.67;;;9.10;53.20;;;-142.21;81.85;112049.66;4955119;29;20471;-77
2022/03/23 06:44:38;;;;;;;15.77;12.20;;;9.30;52.80;;;-142.21;80.81;112049.66;4955304;29;20457;-77
2022/03/23 06:47:05;;;;;;;18.17;12.63;;;9.60;52.40;;;-142.21;80.45;112049.66;4954267;29;20532;-79
2022/03/23 06:49:32;;;;;;;14.57;11.73;;;9.80;52.00;;;-142.21;79.90;112049.66;4955432;28;20457;-78
2022/03/23 06:51:59;;;;;;;15.77;11.40;;;10.10;50.40;;;-142.21;79.27;112049.66;4954941;28;20448;-80
2022/03/23 06:54:28;;;;;;;13.70;11.17;;;10.30;49.90;;;-142.21;79.08;112049.66;4955034;29;20472;-79
2022/03/23 06:56:55;;;;;;;15.03;10.83;;;10.30;49.60;;;-142.21;78.96;112049.66;4955183;28;20798;-80
2022/03/23 06:59:22;;;;;;;15.13;10.90;;;10.50;49.40;;;-142.21;78.13;112049.66;4954756;28;20540;-79
2022/03/23 07:01:52;;;;;;;13.50;10.07;;;10.70;49.00;;;-142.21;77.04;112049.66;4954991;28;20456;-79
2022/03/23 07:04:19;;;;;;;13.60;10.50;;;11.00;48.20;;;-142.21;79.39;112049.66;4953170;28;20544;-79
2022/03/23 07:06:46;;;;;;;15.13;11.03;;;11.20;48.50;;;-142.21;76.83;112049.66;4954040;28;20485;-79
2022/03/23 07:09:31;;;;;;;13.47;10.30;;;11.60;48.00;;;-142.21;76.57;112049.66;4953772;29;20453;-78
2022/03/23 07:11:59;;;;;;;15.63;9.97;;;12.00;47.40;;;-142.21;77.89;112049.66;4953357;29;20941;-78
2022/03/23 07:14:33;;;;;;;15.83;10.97;;;12.70;47.00;;;-142.21;77.56;112049.66;4953945;28;20547;-80
2022/03/23 07:17:07;;;;;;;13.77;10.67;;;13.40;46.40;;;-142.21;74.73;112049.66;4954426;29;20862;-78
2022/03/23 07:20:13;;;;;;;13.03;10.07;;;13.90;45.20;;;-142.21;73.86;112049.66;4954448;29;20452;-78
2022/03/23 07:22:40;;;;;;;14.50;11.03;;;13.80;44.10;;;-142.21;75.08;112049.66;4963253;28;20487;-77
2022/03/23 07:25:09;;;;;;;14.80;10.83;;;13.90;44.30;;;-142.21;74.95;112049.66;4969267;28;20452;-78
2022/03/23 07:27:36;;;;;;;15.10;10.90;;;14.00;44.00;;;-142.21;74.84;112049.66;4953714;28;20613;-78
2022/03/23 07:30:05;;;;;;;14.10;11.60;;;14.60;43.60;;;-142.21;77.02;112049.66;4954267;28;20512;-79
2022/03/23 07:32:35;;;;;;;13.73;10.80;;;14.40;43.40;;;-142.21;73.70;112049.66;4954482;29;20512;-78
2022/03/23 07:35:04;;;;;;;15.93;10.40;;;13.90;43.30;;;-142.21;72.96;112049.66;4939455;29;20543;-79
2022/03/23 07:37:32;;;;;;;17.23;10.97;;;13.50;43.90;;;-142.21;72.93;112049.66;4953683;28;20536;-78
2022/03/23 07:39:59;;;;;;;13.90;11.33;;;13.20;44.30;;;-142.21;77.54;112049.66;4954222;28;21028;-78
2022/03/23 07:42:26;;;;;;;15.47;12.03;;;12.80;45.40;;;-142.21;78.24;112049.66;4953774;28;20448;-77
2022/03/23 07:44:54;;;;;;;16.60;11.57;;;12.70;46.90;;;-142.21;74.82;112049.66;4946793;28;20528;-78
2022/03/23 07:47:21;;;;;;;14.20;11.43;;;12.90;46.10;;;-142.21;75.79;112049.66;4954169;29;20539;-78
2022/03/23 07:49:50;;;;;;;17.33;12.23;;;13.30;46.30;;;-142.21;76.61;112049.66;4954340;28;20468;-77
2022/03/23 07:52:18;;;;;;;14.27;11.53;;;13.80;45.80;;;-142.21;74.16;112049.66;4954065;29;20515;-78
2022/03/23 07:54:46;;;;;;;16.20;11.67;;;13.90;45.40;;;-142.21;75.98;112049.66;4953971;29;20441;-79
2022/03/23 07:57:13;;;;;;;12.87;11.03;;;13.70;45.40;;;-142.21;74.06;112049.66;4954505;28;20455;-77
2022/03/23 07:59:41;;;;;;;17.97;13.00;;;13.50;45.10;;;-142.21;76.01;112049.66;4950634;29;20504;-77
2022/03/23 08:02:09;;;;;;;15.20;11.87;;;13.40;45.80;;;-142.21;71.66;112049.66;4954712;29;21007;-79
2022/03/23 08:04:36;;;;;;;15.50;11.40;;;13.30;45.60;;;-142.21;70.54;112049.66;4937832;29;20855;-78
2022/03/23 08:07:07;;;;;;;14.60;12.03;;;13.10;45.40;;;-142.21;69.20;112049.66;4954138;28;20863;-77
2022/03/23 08:09:34;;;;;;;19.90;12.63;;;13.00;45.60;;;-142.21;71.21;112049.66;4954305;29;20929;-76
2022/03/23 08:12:01;;;;;;;15.30;11.70;;;13.10;46.50;;;-142.21;69.79;112049.66;4953595;28;20519;-78
2022/03/23 08:14:29;;;;;;;19.33;12.03;;;13.20;46.10;;;-142.21;70.64;112049.66;4935349;29;20473;-78
2022/03/23 08:16:56;;;;;;;15.70;12.00;;;13.30;46.50;;;-142.21;70.90;112049.66;4934899;29;20553;-78
2022/03/23 08:19:24;;;;;;;15.63;12.00;;;13.70;46.80;;;-142.21;68.41;112049.66;4941096;29;20966;-79
2022/03/23 08:21:52;;;;;;;16.27;11.30;;;13.70;46.00;;;-142.21;70.82;112049.66;4957608;28;20460;-78
2022/03/23 08:24:22;;;;;;;15.10;11.87;;;13.90;46.60;;;-142.21;66.55;112049.66;4957773;28;20499;-78
2022/03/23 08:26:49;;;;;;;15.87;11.80;;;14.30;45.40;;;-142.21;68.33;112049.66;4957754;28;20496;-79
2022/03/23 08:29:16;;;;;;;15.60;12.50;;;14.60;45.10;;;-142.21;67.25;112049.66;4957879;28;20440;-77
2022/03/23 08:31:44;;;;;;;17.77;12.43;;;14.60;44.80;;;-142.21;70.10;112049.66;4957719;28;20479;-78
2022/03/23 08:34:11;;;;;;;16.97;11.67;;;14.60;45.30;;;-142.21;63.74;112049.66;4957065;28;20437;-80
2022/03/23 08:36:40;;;;;;;16.23;12.43;;;14.60;44.60;;;-142.21;62.32;112049.66;4958006;29;20535;-79
2022/03/23 08:39:07;;;;;;;16.83;12.43;;;14.40;44.40;;;-142.21;61.13;112049.66;4957453;29;20552;-79
2022/03/23 08:41:36;;;;;;;16.10;11.63;;;14.30;44.80;;;-142.21;61.31;112049.66;4957510;29;20938;-80
2022/03/23 08:44:04;;;;;;;14.70;12.40;;;14.40;44.40;;;-142.21;60.10;112049.66;4956527;28;20460;-79
2022/03/23 08:46:31;;;;;;;14.77;11.97;;;15.00;44.30;;;-142.21;57.75;112049.66;4957776;28;20504;-79
2022/03/23 08:48:59;;;;;;;18.43;12.17;;;15.60;43.30;;;-142.21;57.45;112049.66;4957721;29;20474;-80
2022/03/23 08:51:27;;;;;;;18.53;13.10;;;15.70;42.50;;;-142.21;58.42;112049.66;4956723;29;20531;-80
2022/03/23 08:53:54;;;;;;;15.97;12.40;;;15.60;42.90;;;-142.21;59.84;112049.66;4957334;29;20830;-79
2022/03/23 08:56:21;;;;;;;17.93;12.47;;;15.50;43.50;;;-142.21;56.59;112049.66;4957079;29;20845;-77
2022/03/23 08:58:50;;;;;;;15.13;12.30;;;15.70;43.60;;;-142.21;52.23;112049.66;4957181;29;20980;-79
2022/03/23 09:01:17;;;;;;;14.63;12.20;;;16.70;42.40;;;-142.21;53.19;112049.66;4956983;29;20539;-77
2022/03/23 09:03:45;;;;;;;15.43;11.53;;;18.00;41.40;;;-142.21;53.59;112049.66;4956828;29;20293;-76
2022/03/23 09:06:12;;;;;;;16.10;12.33;;;19.70;40.20;;;-142.21;49.31;112049.66;4957290;29;20212;-76
2022/03/23 09:08:39;;;;;;;13.80;11.50;;;21.40;38.50;;;-142.21;49.31;112049.66;4957661;29;20208;-77
2022/03/23 09:11:07;;;;;;;14.57;12.13;;;22.90;37.20;;;-142.21;49.87;112049.66;4957024;28;20340;-77
2022/03/23 09:13:34;;;;;;;20.43;12.30;;;24.10;34.60;;;-142.21;48.64;112049.66;4922892;29;20205;-77
2022/03/23 09:16:03;;;;;;;13.83;12.33;;;25.10;33.00;;;-142.21;44.82;112049.66;4957106;29;20231;-77
2022/03/23 09:18:31;;;;;;;16.57;13.13;;;25.70;31.20;;;-142.21;46.83;112049.66;4956150;29;20247;-78
2022/03/23 09:20:58;;;;;;;13.93;12.40;;;26.60;31.90;;;-142.21;47.18;112049.66;4956636;28;20220;-78
2022/03/23 09:23:25;;;;;;;14.27;12.77;;;27.50;31.00;;;-142.21;45.80;112049.66;4955987;28;20292;-77
2022/03/23 09:25:53;;;;;;;14.07;12.57;;;28.00;29.20;;;-142.21;46.69;112049.66;4956726;28;20559;-76
2022/03/23 09:28:21;;;;;;;13.67;12.27;;;28.40;28.70;;;-142.21;45.57;112049.66;4955257;28;20233;-79
2022/03/23 09:30:49;;;;;;;15.23;12.70;;;28.70;27.70;;;-142.21;45.33;112049.66;4957180;29;20220;-78
2022/03/23 09:33:18;;;;;;;13.50;12.20;;;28.90;27.60;;;-142.21;46.46;112049.66;4956457;29;20215;-76
2022/03/23 09:35:47;;;;;;;14.87;13.17;;;29.50;27.70;;;-142.21;44.72;112049.66;4956034;29;20266;-75
2022/03/23 09:38:14;;;;;;;14.03;12.63;;;30.30;27.40;;;-142.21;46.13;112049.66;4955982;29;20236;-78
2022/03/23 09:40:45;;;;;;;13.83;12.53;;;30.80;26.80;;;-142.21;43.79;112049.66;4955895;29;20219;-77
2022/03/23 09:43:13;;;;;;;16.93;12.53;;;31.30;26.50;;;-142.21;41.63;112049.66;4956388;29;20195;-75
2022/03/23 09:45:47;;;;;;;14.20;12.20;;;31.40;26.20;;;-142.21;41.41;112049.66;4956011;29;20226;-78
2022/03/23 09:48:16;;;;;;;14.40;12.90;;;31.60;24.60;;;-142.21;36.74;112049.66;4956207;28;20231;-76
2022/03/23 09:50:50;;;;;;;13.20;11.90;;;31.70;24.60;;;-142.21;35.21;112049.66;4955658;29;20258;-79
2022/03/23 09:53:19;;;;;;;13.77;11.80;;;31.50;23.00;;;-142.21;35.59;112049.66;4955859;29;20247;-76
2022/03/23 09:55:47;;;;;;;13.40;12.10;;;31.50;23.20;;;-142.21;34.61;112049.66;4955920;29;20212;-78
2022/03/23 09:58:14;;;;;;;15.60;11.90;;;31.30;22.50;;;-142.21;36.33;112049.66;4955969;28;20219;-78
2022/03/23 10:00:44;;;;;;;12.67;11.37;;;31.60;23.50;;;-142.21;36.20;112049.66;4955266;29;20737;-76
2022/03/23 10:04:03;;;;;;;13.27;11.87;;;31.90;23.20;;;-142.21;32.59;112049.66;4938878;29;20687;-78
2022/03/23 10:07:05;;;;;;;14.27;12.87;;;32.20;21.70;;;-142.21;33.04;112049.66;4935764;29;20739;-77